EFJO

Joensuu Airport

Joensuu / Liperi, Finland
TAF EFJO 202027Z 2021/2024 30006KT 9999 -SN FEW008 BKN030 PROB30 2021/2024 2000 BKN010
Issued Valid From Valid To
Jan-20 @ 20:27 UTC
(55 minutes ago)
Jan-20 @ 21:00 UTC
(22 minutes ago)
Jan-21 @ 00:00 UTC
(in 3 hours)
Jan-20 @ 21:00 to Jan-21 @ 00:00
TAF EFJO 202027Z 2021/2024 30006KT 9999 -SN FEW008 BKN030
Wind Visibility Clouds Conditions
300° at 6 knots 10,000+ meters
  • Few at 800' AGL
  • Broken at 3,000' AGL
  • Light Snow
Probable  (Probability 30%) Jan-20 @ 21:00 to Jan-21 @ 00:00
PROB30 2021/2024 2000 BKN010
Visibility Clouds
1,996 meters
  • Broken at 1,000' AGL
TAF EFJO 202027Z 2021/2024 30006KT 9999 -SN FEW008 BKN030 PROB30 2021/2024 2000 BKN010
Issued Jan-20 @ 20:27 UTC
(55 minutes ago)
Valid From Jan-20 @ 21:00 UTC
(22 minutes ago)
Valid To Jan-21 @ 00:00 UTC
(in 3 hours)
Jan-20 @ 21:00 - Jan-21 @ 00:00
Wind Visibility
300° at 6 knots 10,000+ meters
Clouds
  • Few at 800' AGL
  • Broken at 3,000' AGL
Conditions
  • Light Snow
Probability 30% Probable Jan-20 @ 21:00 - Jan-21 @ 00:00
Clouds
  • Broken at 1,000' AGL